sensor_id;sensor_type;location;lat;lon;timestamp;P1;durP1;ratioP1;P2;durP2;ratioP2
12814;SDS011;6472;52.328;13.070;2023-01-24T00:01:16;11.20;;;5.93;;
12814;SDS011;6472;52.328;13.070;2023-01-24T00:03:46;6.53;;;4.83;;
12814;SDS011;6472;52.328;13.070;2023-01-24T00:06:15;11.80;;;5.57;;
12814;SDS011;6472;52.328;13.070;2023-01-24T00:08:43;10.80;;;5.40;;
12814;SDS011;6472;52.328;13.070;2023-01-24T00:11:11;6.40;;;4.17;;
12814;SDS011;6472;52.328;13.070;2023-01-24T00:13:40;8.37;;;4.83;;
12814;SDS011;6472;52.328;13.070;2023-01-24T00:16:09;9.57;;;5.50;;
12814;SDS011;6472;52.328;13.070;2023-01-24T00:18:39;11.03;;;6.23;;
12814;SDS011;6472;52.328;13.070;2023-01-24T00:21:10;13.90;;;6.53;;
12814;SDS011;6472;52.328;13.070;2023-01-24T00:23:40;15.60;;;6.73;;
12814;SDS011;6472;52.328;13.070;2023-01-24T00:26:09;15.40;;;6.33;;
12814;SDS011;6472;52.328;13.070;2023-01-24T00:28:38;10.37;;;5.83;;
12814;SDS011;6472;52.328;13.070;2023-01-24T00:31:06;9.83;;;5.33;;
12814;SDS011;6472;52.328;13.070;2023-01-24T00:33:34;11.70;;;5.63;;
12814;SDS011;6472;52.328;13.070;2023-01-24T00:36:03;8.77;;;5.67;;
12814;SDS011;6472;52.328;13.070;2023-01-24T00:38:33;9.73;;;5.33;;
12814;SDS011;6472;52.328;13.070;2023-01-24T00:41:01;11.60;;;5.43;;
12814;SDS011;6472;52.328;13.070;2023-01-24T00:43:29;13.43;;;5.63;;
12814;SDS011;6472;52.328;13.070;2023-01-24T00:45:57;12.27;;;7.27;;
12814;SDS011;6472;52.328;13.070;2023-01-24T00:48:25;10.10;;;5.27;;
12814;SDS011;6472;52.328;13.070;2023-01-24T00:50:53;9.50;;;6.00;;
12814;SDS011;6472;52.328;13.070;2023-01-24T00:53:22;8.03;;;4.67;;
12814;SDS011;6472;52.328;13.070;2023-01-24T00:55:53;13.07;;;5.80;;
12814;SDS011;6472;52.328;13.070;2023-01-24T00:58:22;10.20;;;5.23;;
12814;SDS011;6472;52.328;13.070;2023-01-24T01:00:50;9.20;;;5.67;;
12814;SDS011;6472;52.328;13.070;2023-01-24T01:03:22;12.80;;;5.37;;
12814;SDS011;6472;52.328;13.070;2023-01-24T01:05:56;10.17;;;5.20;;
12814;SDS011;6472;52.328;13.070;2023-01-24T01:08:24;11.60;;;6.00;;
12814;SDS011;6472;52.328;13.070;2023-01-24T01:10:54;8.17;;;5.80;;
12814;SDS011;6472;52.328;13.070;2023-01-24T01:13:22;11.03;;;6.20;;
12814;SDS011;6472;52.328;13.070;2023-01-24T01:15:51;8.60;;;5.13;;
12814;SDS011;6472;52.328;13.070;2023-01-24T01:18:19;10.43;;;6.00;;
12814;SDS011;6472;52.328;13.070;2023-01-24T01:20:50;14.40;;;6.30;;
12814;SDS011;6472;52.328;13.070;2023-01-24T01:23:18;10.53;;;6.60;;
12814;SDS011;6472;52.328;13.070;2023-01-24T01:25:46;12.97;;;7.07;;
12814;SDS011;6472;52.328;13.070;2023-01-24T01:28:16;10.30;;;6.03;;
12814;SDS011;6472;52.328;13.070;2023-01-24T01:30:48;10.70;;;5.77;;
12814;SDS011;6472;52.328;13.070;2023-01-24T01:33:19;11.10;;;5.07;;
12814;SDS011;6472;52.328;13.070;2023-01-24T01:35:48;14.67;;;6.57;;
12814;SDS011;6472;52.328;13.070;2023-01-24T01:38:17;18.63;;;7.20;;
12814;SDS011;6472;52.328;13.070;2023-01-24T01:40:46;13.33;;;6.30;;
12814;SDS011;6472;52.328;13.070;2023-01-24T01:43:16;10.30;;;6.33;;
12814;SDS011;6472;52.328;13.070;2023-01-24T01:45:46;12.87;;;6.20;;
12814;SDS011;6472;52.328;13.070;2023-01-24T01:48:22;11.20;;;5.77;;
12814;SDS011;6472;52.328;13.070;2023-01-24T01:50:59;13.83;;;5.43;;
12814;SDS011;6472;52.328;13.070;2023-01-24T01:53:32;12.10;;;6.40;;
12814;SDS011;6472;52.328;13.070;2023-01-24T01:56:04;18.77;;;7.50;;
12814;SDS011;6472;52.328;13.070;2023-01-24T01:58:37;14.13;;;5.40;;
12814;SDS011;6472;52.328;13.070;2023-01-24T02:01:07;9.67;;;6.20;;
12814;SDS011;6472;52.328;13.070;2023-01-24T02:03:48;13.90;;;6.87;;
12814;SDS011;6472;52.328;13.070;2023-01-24T02:06:27;11.60;;;6.53;;
12814;SDS011;6472;52.328;13.070;2023-01-24T02:09:07;14.40;;;6.80;;
12814;SDS011;6472;52.328;13.070;2023-01-24T02:11:37;13.97;;;7.50;;
12814;SDS011;6472;52.328;13.070;2023-01-24T02:14:09;16.27;;;7.50;;
12814;SDS011;6472;52.328;13.070;2023-01-24T02:16:56;15.53;;;8.10;;
12814;SDS011;6472;52.328;13.070;2023-01-24T02:22:19;10.43;;;6.63;;
12814;SDS011;6472;52.328;13.070;2023-01-24T02:24:57;14.80;;;6.37;;
12814;SDS011;6472;52.328;13.070;2023-01-24T02:27:33;16.40;;;7.67;;
12814;SDS011;6472;52.328;13.070;2023-01-24T02:30:01;12.40;;;6.03;;
12814;SDS011;6472;52.328;13.070;2023-01-24T02:32:30;11.10;;;6.30;;
12814;SDS011;6472;52.328;13.070;2023-01-24T02:34:58;16.40;;;6.70;;
12814;SDS011;6472;52.328;13.070;2023-01-24T02:37:26;21.70;;;6.73;;
12814;SDS011;6472;52.328;13.070;2023-01-24T02:39:55;13.27;;;6.63;;
12814;SDS011;6472;52.328;13.070;2023-01-24T02:42:28;15.67;;;7.27;;
12814;SDS011;6472;52.328;13.070;2023-01-24T02:45:01;10.80;;;5.37;;
12814;SDS011;6472;52.328;13.070;2023-01-24T02:47:33;17.23;;;7.17;;
12814;SDS011;6472;52.328;13.070;2023-01-24T02:50:04;10.73;;;6.93;;
12814;SDS011;6472;52.328;13.070;2023-01-24T02:52:35;11.50;;;6.00;;
12814;SDS011;6472;52.328;13.070;2023-01-24T02:55:20;14.57;;;7.53;;
12814;SDS011;6472;52.328;13.070;2023-01-24T02:57:49;13.97;;;6.77;;
12814;SDS011;6472;52.328;13.070;2023-01-24T03:00:36;16.30;;;7.33;;
12814;SDS011;6472;52.328;13.070;2023-01-24T03:03:06;10.30;;;5.53;;
12814;SDS011;6472;52.328;13.070;2023-01-24T03:05:35;17.83;;;7.47;;
12814;SDS011;6472;52.328;13.070;2023-01-24T03:08:23;9.20;;;5.77;;
12814;SDS011;6472;52.328;13.070;2023-01-24T03:10:52;12.87;;;5.93;;
12814;SDS011;6472;52.328;13.070;2023-01-24T03:13:20;18.17;;;7.43;;
12814;SDS011;6472;52.328;13.070;2023-01-24T03:16:08;10.57;;;7.17;;
12814;SDS011;6472;52.328;13.070;2023-01-24T03:18:54;13.87;;;6.47;;
12814;SDS011;6472;52.328;13.070;2023-01-24T03:21:39;16.10;;;7.60;;
12814;SDS011;6472;52.328;13.070;2023-01-24T03:24:25;7.83;;;5.20;;
12814;SDS011;6472;52.328;13.070;2023-01-24T03:27:10;15.97;;;6.60;;
12814;SDS011;6472;52.328;13.070;2023-01-24T03:29:57;12.13;;;6.60;;
12814;SDS011;6472;52.328;13.070;2023-01-24T03:32:44;10.40;;;5.67;;
12814;SDS011;6472;52.328;13.070;2023-01-24T03:35:30;10.80;;;6.33;;
12814;SDS011;6472;52.328;13.070;2023-01-24T03:37:58;8.03;;;5.63;;
12814;SDS011;6472;52.328;13.070;2023-01-24T03:40:44;14.57;;;6.83;;
12814;SDS011;6472;52.328;13.070;2023-01-24T03:43:12;15.97;;;7.90;;
12814;SDS011;6472;52.328;13.070;2023-01-24T03:45:40;15.40;;;6.37;;
12814;SDS011;6472;52.328;13.070;2023-01-24T03:48:10;12.13;;;6.50;;
12814;SDS011;6472;52.328;13.070;2023-01-24T03:50:40;10.27;;;6.47;;
12814;SDS011;6472;52.328;13.070;2023-01-24T03:53:28;12.20;;;5.87;;
12814;SDS011;6472;52.328;13.070;2023-01-24T03:55:58;13.23;;;6.27;;
12814;SDS011;6472;52.328;13.070;2023-01-24T03:58:28;8.63;;;5.33;;
12814;SDS011;6472;52.328;13.070;2023-01-24T04:00:57;10.70;;;5.10;;
12814;SDS011;6472;52.328;13.070;2023-01-24T04:03:27;16.30;;;7.80;;
12814;SDS011;6472;52.328;13.070;2023-01-24T04:05:55;21.20;;;7.93;;
12814;SDS011;6472;52.328;13.070;2023-01-24T04:08:23;12.73;;;5.70;;
12814;SDS011;6472;52.328;13.070;2023-01-24T04:10:51;15.70;;;7.03;;
12814;SDS011;6472;52.328;13.070;2023-01-24T04:13:21;12.63;;;6.53;;
12814;SDS011;6472;52.328;13.070;2023-01-24T04:15:50;7.27;;;4.87;;
12814;SDS011;6472;52.328;13.070;2023-01-24T04:18:18;11.33;;;6.43;;
12814;SDS011;6472;52.328;13.070;2023-01-24T04:20:47;21.90;;;6.00;;
12814;SDS011;6472;52.328;13.070;2023-01-24T04:23:15;9.53;;;4.83;;
12814;SDS011;6472;52.328;13.070;2023-01-24T04:25:48;12.47;;;6.80;;
12814;SDS011;6472;52.328;13.070;2023-01-24T04:28:21;16.07;;;6.27;;
12814;SDS011;6472;52.328;13.070;2023-01-24T04:30:55;14.13;;;6.17;;
12814;SDS011;6472;52.328;13.070;2023-01-24T04:33:23;12.13;;;5.90;;
12814;SDS011;6472;52.328;13.070;2023-01-24T04:35:55;13.73;;;6.40;;
12814;SDS011;6472;52.328;13.070;2023-01-24T04:38:24;10.93;;;5.83;;
12814;SDS011;6472;52.328;13.070;2023-01-24T04:40:58;12.20;;;7.40;;
12814;SDS011;6472;52.328;13.070;2023-01-24T04:43:27;16.00;;;5.73;;
12814;SDS011;6472;52.328;13.070;2023-01-24T04:45:56;8.43;;;5.20;;
12814;SDS011;6472;52.328;13.070;2023-01-24T04:48:24;14.10;;;5.77;;
12814;SDS011;6472;52.328;13.070;2023-01-24T04:50:58;8.80;;;5.13;;
12814;SDS011;6472;52.328;13.070;2023-01-24T04:53:26;10.93;;;5.00;;
12814;SDS011;6472;52.328;13.070;2023-01-24T04:55:59;14.40;;;6.13;;
12814;SDS011;6472;52.328;13.070;2023-01-24T04:58:27;9.20;;;5.33;;
12814;SDS011;6472;52.328;13.070;2023-01-24T05:00:55;7.47;;;4.10;;
12814;SDS011;6472;52.328;13.070;2023-01-24T05:03:25;10.90;;;5.50;;
12814;SDS011;6472;52.328;13.070;2023-01-24T05:05:53;10.17;;;5.40;;
12814;SDS011;6472;52.328;13.070;2023-01-24T05:08:23;11.23;;;5.27;;
12814;SDS011;6472;52.328;13.070;2023-01-24T05:10:52;8.20;;;4.13;;
12814;SDS011;6472;52.328;13.070;2023-01-24T05:13:20;7.70;;;5.07;;
12814;SDS011;6472;52.328;13.070;2023-01-24T05:15:49;12.47;;;6.57;;
12814;SDS011;6472;52.328;13.070;2023-01-24T05:18:18;8.10;;;5.57;;
12814;SDS011;6472;52.328;13.070;2023-01-24T05:20:46;11.77;;;4.83;;
12814;SDS011;6472;52.328;13.070;2023-01-24T05:23:14;14.07;;;6.60;;
12814;SDS011;6472;52.328;13.070;2023-01-24T05:25:44;9.33;;;5.47;;
12814;SDS011;6472;52.328;13.070;2023-01-24T05:28:12;9.83;;;4.97;;
12814;SDS011;6472;52.328;13.070;2023-01-24T05:30:40;9.07;;;5.70;;
12814;SDS011;6472;52.328;13.070;2023-01-24T05:33:09;9.83;;;5.10;;
12814;SDS011;6472;52.328;13.070;2023-01-24T05:35:37;8.33;;;4.87;;
12814;SDS011;6472;52.328;13.070;2023-01-24T05:38:06;9.77;;;5.10;;
12814;SDS011;6472;52.328;13.070;2023-01-24T05:40:34;9.03;;;3.90;;
12814;SDS011;6472;52.328;13.070;2023-01-24T05:43:04;4.93;;;3.70;;
12814;SDS011;6472;52.328;13.070;2023-01-24T05:45:33;9.40;;;4.73;;
12814;SDS011;6472;52.328;13.070;2023-01-24T05:48:01;6.30;;;3.97;;
12814;SDS011;6472;52.328;13.070;2023-01-24T05:50:29;14.20;;;5.17;;
12814;SDS011;6472;52.328;13.070;2023-01-24T05:52:56;10.67;;;4.23;;
12814;SDS011;6472;52.328;13.070;2023-01-24T05:55:24;7.10;;;4.30;;
12814;SDS011;6472;52.328;13.070;2023-01-24T05:57:52;8.77;;;5.10;;
12814;SDS011;6472;52.328;13.070;2023-01-24T06:00:22;10.30;;;4.73;;
12814;SDS011;6472;52.328;13.070;2023-01-24T06:02:50;7.30;;;4.27;;
12814;SDS011;6472;52.328;13.070;2023-01-24T06:05:18;6.13;;;4.50;;
12814;SDS011;6472;52.328;13.070;2023-01-24T06:07:46;11.83;;;4.97;;
12814;SDS011;6472;52.328;13.070;2023-01-24T06:10:15;13.47;;;5.73;;
12814;SDS011;6472;52.328;13.070;2023-01-24T06:12:43;6.07;;;5.07;;
12814;SDS011;6472;52.328;13.070;2023-01-24T06:15:11;9.73;;;4.40;;
12814;SDS011;6472;52.328;13.070;2023-01-24T06:17:40;8.47;;;4.60;;
12814;SDS011;6472;52.328;13.070;2023-01-24T06:20:10;12.40;;;5.90;;
12814;SDS011;6472;52.328;13.070;2023-01-24T06:22:41;8.50;;;5.00;;
12814;SDS011;6472;52.328;13.070;2023-01-24T06:25:18;11.53;;;5.20;;
12814;SDS011;6472;52.328;13.070;2023-01-24T06:27:48;9.73;;;4.80;;
12814;SDS011;6472;52.328;13.070;2023-01-24T06:30:17;8.40;;;5.23;;
12814;SDS011;6472;52.328;13.070;2023-01-24T06:33:01;14.00;;;5.57;;
12814;SDS011;6472;52.328;13.070;2023-01-24T06:35:42;9.00;;;4.50;;
12814;SDS011;6472;52.328;13.070;2023-01-24T06:38:21;7.00;;;3.73;;
12814;SDS011;6472;52.328;13.070;2023-01-24T06:40:52;10.43;;;4.93;;
12814;SDS011;6472;52.328;13.070;2023-01-24T06:43:23;8.20;;;5.03;;
12814;SDS011;6472;52.328;13.070;2023-01-24T06:45:51;7.87;;;4.80;;
12814;SDS011;6472;52.328;13.070;2023-01-24T06:48:21;10.97;;;5.97;;
12814;SDS011;6472;52.328;13.070;2023-01-24T06:50:49;9.10;;;5.07;;
12814;SDS011;6472;52.328;13.070;2023-01-24T06:53:18;10.63;;;5.37;;
12814;SDS011;6472;52.328;13.070;2023-01-24T06:55:46;11.03;;;5.27;;
12814;SDS011;6472;52.328;13.070;2023-01-24T06:58:14;8.50;;;4.60;;
12814;SDS011;6472;52.328;13.070;2023-01-24T07:00:42;9.23;;;4.43;;
12814;SDS011;6472;52.328;13.070;2023-01-24T07:03:10;12.87;;;5.53;;
12814;SDS011;6472;52.328;13.070;2023-01-24T07:05:40;9.00;;;5.07;;
12814;SDS011;6472;52.328;13.070;2023-01-24T07:08:08;8.00;;;5.17;;
12814;SDS011;6472;52.328;13.070;2023-01-24T07:10:36;8.53;;;5.10;;
12814;SDS011;6472;52.328;13.070;2023-01-24T07:13:05;7.97;;;5.67;;
12814;SDS011;6472;52.328;13.070;2023-01-24T07:15:33;9.03;;;4.83;;
12814;SDS011;6472;52.328;13.070;2023-01-24T07:18:04;8.83;;;4.77;;
12814;SDS011;6472;52.328;13.070;2023-01-24T07:20:32;11.43;;;4.67;;
12814;SDS011;6472;52.328;13.070;2023-01-24T07:23:03;13.57;;;5.47;;
12814;SDS011;6472;52.328;13.070;2023-01-24T07:25:31;7.90;;;5.63;;
12814;SDS011;6472;52.328;13.070;2023-01-24T07:28:01;8.97;;;4.47;;
12814;SDS011;6472;52.328;13.070;2023-01-24T07:30:29;13.13;;;5.27;;
12814;SDS011;6472;52.328;13.070;2023-01-24T07:32:59;5.77;;;3.93;;
12814;SDS011;6472;52.328;13.070;2023-01-24T07:35:27;7.67;;;5.10;;
12814;SDS011;6472;52.328;13.070;2023-01-24T07:37:55;10.87;;;5.80;;
12814;SDS011;6472;52.328;13.070;2023-01-24T07:40:25;10.67;;;6.17;;
12814;SDS011;6472;52.328;13.070;2023-01-24T07:42:53;8.60;;;5.40;;
12814;SDS011;6472;52.328;13.070;2023-01-24T07:45:21;6.37;;;4.43;;
12814;SDS011;6472;52.328;13.070;2023-01-24T07:47:53;10.07;;;5.37;;
12814;SDS011;6472;52.328;13.070;2023-01-24T07:50:23;11.10;;;5.47;;
12814;SDS011;6472;52.328;13.070;2023-01-24T07:52:51;7.83;;;4.87;;
12814;SDS011;6472;52.328;13.070;2023-01-24T07:55:19;10.83;;;5.73;;
12814;SDS011;6472;52.328;13.070;2023-01-24T07:57:50;6.17;;;4.67;;
12814;SDS011;6472;52.328;13.070;2023-01-24T08:00:18;11.37;;;6.47;;
12814;SDS011;6472;52.328;13.070;2023-01-24T08:02:47;17.90;;;5.23;;
12814;SDS011;6472;52.328;13.070;2023-01-24T08:05:16;7.43;;;4.63;;
12814;SDS011;6472;52.328;13.070;2023-01-24T08:07:44;8.43;;;4.73;;
12814;SDS011;6472;52.328;13.070;2023-01-24T08:10:12;8.47;;;5.50;;
12814;SDS011;6472;52.328;13.070;2023-01-24T08:12:40;9.60;;;5.57;;
12814;SDS011;6472;52.328;13.070;2023-01-24T08:15:11;9.83;;;5.10;;
12814;SDS011;6472;52.328;13.070;2023-01-24T08:17:39;11.73;;;6.23;;
12814;SDS011;6472;52.328;13.070;2023-01-24T08:20:08;11.03;;;5.70;;
12814;SDS011;6472;52.328;13.070;2023-01-24T08:22:37;8.80;;;5.07;;
12814;SDS011;6472;52.328;13.070;2023-01-24T08:25:22;9.70;;;5.03;;
12814;SDS011;6472;52.328;13.070;2023-01-24T08:27:51;11.80;;;5.73;;
12814;SDS011;6472;52.328;13.070;2023-01-24T08:30:20;11.20;;;5.67;;
12814;SDS011;6472;52.328;13.070;2023-01-24T08:32:57;9.53;;;5.77;;
12814;SDS011;6472;52.328;13.070;2023-01-24T08:35:26;8.33;;;4.93;;
12814;SDS011;6472;52.328;13.070;2023-01-24T08:37:54;11.40;;;6.10;;
12814;SDS011;6472;52.328;13.070;2023-01-24T08:40:23;7.60;;;6.10;;
12814;SDS011;6472;52.328;13.070;2023-01-24T08:42:53;9.30;;;5.47;;
12814;SDS011;6472;52.328;13.070;2023-01-24T08:45:23;9.03;;;5.00;;
12814;SDS011;6472;52.328;13.070;2023-01-24T08:47:51;15.50;;;6.13;;
12814;SDS011;6472;52.328;13.070;2023-01-24T08:50:20;9.60;;;5.07;;
12814;SDS011;6472;52.328;13.070;2023-01-24T08:52:48;11.83;;;5.50;;
12814;SDS011;6472;52.328;13.070;2023-01-24T08:55:16;10.63;;;5.33;;
12814;SDS011;6472;52.328;13.070;2023-01-24T08:57:45;11.87;;;5.53;;
12814;SDS011;6472;52.328;13.070;2023-01-24T09:00:13;9.70;;;5.27;;
12814;SDS011;6472;52.328;13.070;2023-01-24T09:02:43;7.10;;;5.03;;
12814;SDS011;6472;52.328;13.070;2023-01-24T09:05:12;9.13;;;5.63;;
12814;SDS011;6472;52.328;13.070;2023-01-24T09:07:40;8.43;;;5.90;;
12814;SDS011;6472;52.328;13.070;2023-01-24T09:10:09;10.10;;;5.37;;
12814;SDS011;6472;52.328;13.070;2023-01-24T09:12:37;12.80;;;6.77;;
12814;SDS011;6472;52.328;13.070;2023-01-24T09:15:06;9.83;;;5.30;;
12814;SDS011;6472;52.328;13.070;2023-01-24T09:17:35;12.27;;;5.03;;
12814;SDS011;6472;52.328;13.070;2023-01-24T09:20:06;15.47;;;6.10;;
12814;SDS011;6472;52.328;13.070;2023-01-24T09:22:35;9.57;;;5.93;;
12814;SDS011;6472;52.328;13.070;2023-01-24T09:25:04;10.60;;;5.53;;
12814;SDS011;6472;52.328;13.070;2023-01-24T09:27:34;11.13;;;6.57;;
12814;SDS011;6472;52.328;13.070;2023-01-24T09:30:02;12.77;;;6.10;;
12814;SDS011;6472;52.328;13.070;2023-01-24T09:32:32;12.30;;;6.10;;
12814;SDS011;6472;52.328;13.070;2023-01-24T09:35:00;14.57;;;6.63;;
12814;SDS011;6472;52.328;13.070;2023-01-24T09:37:31;12.93;;;6.77;;
12814;SDS011;6472;52.328;13.070;2023-01-24T09:40:53;7.43;;;5.07;;
12814;SDS011;6472;52.328;13.070;2023-01-24T09:44:01;11.53;;;5.23;;
12814;SDS011;6472;52.328;13.070;2023-01-24T09:46:35;19.20;;;6.27;;
12814;SDS011;6472;52.328;13.070;2023-01-24T09:49:11;17.67;;;5.93;;
12814;SDS011;6472;52.328;13.070;2023-01-24T09:51:43;11.87;;;6.83;;
12814;SDS011;6472;52.328;13.070;2023-01-24T09:54:17;18.90;;;6.70;;
12814;SDS011;6472;52.328;13.070;2023-01-24T09:56:52;8.60;;;5.23;;
12814;SDS011;6472;52.328;13.070;2023-01-24T09:59:23;10.57;;;6.03;;
12814;SDS011;6472;52.328;13.070;2023-01-24T10:02:00;8.43;;;6.03;;
12814;SDS011;6472;52.328;13.070;2023-01-24T10:04:30;15.27;;;6.30;;
12814;SDS011;6472;52.328;13.070;2023-01-24T10:07:13;16.97;;;7.83;;
12814;SDS011;6472;52.328;13.070;2023-01-24T10:09:59;11.10;;;6.33;;
12814;SDS011;6472;52.328;13.070;2023-01-24T10:12:37;11.07;;;6.17;;
12814;SDS011;6472;52.328;13.070;2023-01-24T10:15:18;18.87;;;7.57;;
12814;SDS011;6472;52.328;13.070;2023-01-24T10:21:09;9.47;;;4.90;;
12814;SDS011;6472;52.328;13.070;2023-01-24T10:23:46;14.77;;;6.70;;
12814;SDS011;6472;52.328;13.070;2023-01-24T10:26:20;19.27;;;6.50;;
12814;SDS011;6472;52.328;13.070;2023-01-24T10:28:50;12.17;;;6.13;;
12814;SDS011;6472;52.328;13.070;2023-01-24T10:31:20;15.17;;;5.43;;
12814;SDS011;6472;52.328;13.070;2023-01-24T10:33:54;16.67;;;6.63;;
12814;SDS011;6472;52.328;13.070;2023-01-24T10:36:28;15.77;;;8.07;;
12814;SDS011;6472;52.328;13.070;2023-01-24T10:39:04;13.40;;;6.30;;
12814;SDS011;6472;52.328;13.070;2023-01-24T10:41:33;12.70;;;5.47;;
12814;SDS011;6472;52.328;13.070;2023-01-24T10:44:02;11.70;;;6.53;;
12814;SDS011;6472;52.328;13.070;2023-01-24T10:49:30;12.57;;;6.23;;
12814;SDS011;6472;52.328;13.070;2023-01-24T10:52:09;17.03;;;8.17;;
12814;SDS011;6472;52.328;13.070;2023-01-24T10:54:42;14.03;;;5.73;;
12814;SDS011;6472;52.328;13.070;2023-01-24T11:00:03;18.90;;;7.47;;
12814;SDS011;6472;52.328;13.070;2023-01-24T11:02:44;16.90;;;7.40;;
12814;SDS011;6472;52.328;13.070;2023-01-24T11:05:14;13.37;;;6.03;;
12814;SDS011;6472;52.328;13.070;2023-01-24T11:07:45;11.83;;;6.87;;
12814;SDS011;6472;52.328;13.070;2023-01-24T11:10:17;20.17;;;7.43;;
12814;SDS011;6472;52.328;13.070;2023-01-24T11:12:51;9.63;;;6.97;;
12814;SDS011;6472;52.328;13.070;2023-01-24T11:15:22;15.13;;;6.77;;
12814;SDS011;6472;52.328;13.070;2023-01-24T11:17:54;13.03;;;6.50;;
12814;SDS011;6472;52.328;13.070;2023-01-24T11:20:28;15.70;;;6.17;;
12814;SDS011;6472;52.328;13.070;2023-01-24T11:23:02;11.33;;;7.00;;
12814;SDS011;6472;52.328;13.070;2023-01-24T11:25:31;13.27;;;6.00;;
12814;SDS011;6472;52.328;13.070;2023-01-24T11:28:01;13.10;;;5.70;;
12814;SDS011;6472;52.328;13.070;2023-01-24T11:30:29;8.10;;;5.03;;
12814;SDS011;6472;52.328;13.070;2023-01-24T11:33:27;14.13;;;6.57;;
12814;SDS011;6472;52.328;13.070;2023-01-24T11:36:02;16.10;;;6.13;;
12814;SDS011;6472;52.328;13.070;2023-01-24T11:38:35;11.47;;;6.03;;
12814;SDS011;6472;52.328;13.070;2023-01-24T11:41:09;13.70;;;6.43;;
12814;SDS011;6472;52.328;13.070;2023-01-24T11:46:45;11.77;;;6.17;;
12814;SDS011;6472;52.328;13.070;2023-01-24T11:49:26;11.23;;;6.90;;
12814;SDS011;6472;52.328;13.070;2023-01-24T11:52:14;10.10;;;5.73;;
12814;SDS011;6472;52.328;13.070;2023-01-24T11:55:08;16.37;;;6.27;;
12814;SDS011;6472;52.328;13.070;2023-01-24T11:57:56;12.63;;;6.57;;
12814;SDS011;6472;52.328;13.070;2023-01-24T12:00:34;11.90;;;6.40;;
12814;SDS011;6472;52.328;13.070;2023-01-24T12:03:13;11.57;;;6.03;;
12814;SDS011;6472;52.328;13.070;2023-01-24T12:05:59;8.87;;;5.70;;
12814;SDS011;6472;52.328;13.070;2023-01-24T12:08:38;12.50;;;6.23;;
12814;SDS011;6472;52.328;13.070;2023-01-24T12:11:18;17.27;;;5.87;;
12814;SDS011;6472;52.328;13.070;2023-01-24T12:14:07;16.50;;;6.07;;
12814;SDS011;6472;52.328;13.070;2023-01-24T12:16:59;15.90;;;6.93;;
12814;SDS011;6472;52.328;13.070;2023-01-24T12:19:52;11.50;;;5.87;;
12814;SDS011;6472;52.328;13.070;2023-01-24T12:22:55;15.57;;;6.70;;
12814;SDS011;6472;52.328;13.070;2023-01-24T12:25:27;13.83;;;7.10;;
12814;SDS011;6472;52.328;13.070;2023-01-24T12:27:59;12.90;;;5.83;;
12814;SDS011;6472;52.328;13.070;2023-01-24T12:30:32;14.70;;;6.23;;
12814;SDS011;6472;52.328;13.070;2023-01-24T12:33:08;13.33;;;6.30;;
12814;SDS011;6472;52.328;13.070;2023-01-24T12:35:42;13.30;;;6.60;;
12814;SDS011;6472;52.328;13.070;2023-01-24T12:38:13;16.57;;;7.53;;
12814;SDS011;6472;52.328;13.070;2023-01-24T12:40:49;17.97;;;6.83;;
12814;SDS011;6472;52.328;13.070;2023-01-24T12:43:24;20.77;;;7.83;;
12814;SDS011;6472;52.328;13.070;2023-01-24T12:46:01;16.77;;;7.33;;
12814;SDS011;6472;52.328;13.070;2023-01-24T12:48:39;13.37;;;6.80;;
12814;SDS011;6472;52.328;13.070;2023-01-24T12:51:15;22.63;;;8.27;;
12814;SDS011;6472;52.328;13.070;2023-01-24T12:53:54;16.47;;;7.77;;
12814;SDS011;6472;52.328;13.070;2023-01-24T12:56:27;21.47;;;7.30;;
12814;SDS011;6472;52.328;13.070;2023-01-24T12:58:59;16.40;;;7.10;;
12814;SDS011;6472;52.328;13.070;2023-01-24T13:01:38;16.77;;;7.27;;
12814;SDS011;6472;52.328;13.070;2023-01-24T13:04:37;17.03;;;6.87;;
12814;SDS011;6472;52.328;13.070;2023-01-24T13:07:14;15.47;;;6.77;;
12814;SDS011;6472;52.328;13.070;2023-01-24T13:09:52;17.17;;;7.70;;
12814;SDS011;6472;52.328;13.070;2023-01-24T13:12:26;19.60;;;8.73;;
12814;SDS011;6472;52.328;13.070;2023-01-24T13:14:56;21.93;;;7.80;;
12814;SDS011;6472;52.328;13.070;2023-01-24T13:17:38;19.23;;;8.77;;
12814;SDS011;6472;52.328;13.070;2023-01-24T13:20:35;19.30;;;7.07;;
12814;SDS011;6472;52.328;13.070;2023-01-24T13:23:22;25.50;;;9.23;;
12814;SDS011;6472;52.328;13.070;2023-01-24T13:26:11;20.93;;;8.37;;
12814;SDS011;6472;52.328;13.070;2023-01-24T13:29:09;14.00;;;6.83;;
12814;SDS011;6472;52.328;13.070;2023-01-24T13:31:53;15.23;;;8.10;;
12814;SDS011;6472;52.328;13.070;2023-01-24T13:34:28;21.77;;;9.63;;
12814;SDS011;6472;52.328;13.070;2023-01-24T13:37:02;22.87;;;8.80;;
12814;SDS011;6472;52.328;13.070;2023-01-24T13:39:32;24.17;;;8.73;;
12814;SDS011;6472;52.328;13.070;2023-01-24T13:42:03;29.57;;;11.03;;
12814;SDS011;6472;52.328;13.070;2023-01-24T13:44:33;23.07;;;9.30;;
12814;SDS011;6472;52.328;13.070;2023-01-24T13:47:03;16.07;;;7.53;;
12814;SDS011;6472;52.328;13.070;2023-01-24T13:50:02;20.30;;;8.10;;
12814;SDS011;6472;52.328;13.070;2023-01-24T13:52:45;26.47;;;8.83;;
12814;SDS011;6472;52.328;13.070;2023-01-24T13:58:32;22.80;;;8.97;;
12814;SDS011;6472;52.328;13.070;2023-01-24T14:01:03;28.40;;;9.03;;
12814;SDS011;6472;52.328;13.070;2023-01-24T14:03:41;32.53;;;10.47;;
12814;SDS011;6472;52.328;13.070;2023-01-24T14:06:21;23.00;;;10.90;;
12814;SDS011;6472;52.328;13.070;2023-01-24T14:09:02;30.30;;;12.23;;
12814;SDS011;6472;52.328;13.070;2023-01-24T14:11:52;21.87;;;8.90;;
12814;SDS011;6472;52.328;13.070;2023-01-24T14:14:31;20.20;;;8.57;;
12814;SDS011;6472;52.328;13.070;2023-01-24T14:20:21;27.93;;;11.07;;
12814;SDS011;6472;52.328;13.070;2023-01-24T14:22:57;26.80;;;10.10;;
12814;SDS011;6472;52.328;13.070;2023-01-24T14:25:40;28.67;;;9.00;;
12814;SDS011;6472;52.328;13.070;2023-01-24T14:28:18;22.60;;;9.53;;
12814;SDS011;6472;52.328;13.070;2023-01-24T14:30:54;23.70;;;10.03;;
12814;SDS011;6472;52.328;13.070;2023-01-24T14:33:29;30.03;;;10.20;;
12814;SDS011;6472;52.328;13.070;2023-01-24T14:36:05;22.10;;;8.97;;
12814;SDS011;6472;52.328;13.070;2023-01-24T14:38:39;42.47;;;11.37;;
12814;SDS011;6472;52.328;13.070;2023-01-24T14:41:12;37.93;;;11.27;;
12814;SDS011;6472;52.328;13.070;2023-01-24T14:43:47;24.13;;;9.53;;
12814;SDS011;6472;52.328;13.070;2023-01-24T14:46:19;20.53;;;9.10;;
12814;SDS011;6472;52.328;13.070;2023-01-24T14:48:49;31.40;;;11.27;;
12814;SDS011;6472;52.328;13.070;2023-01-24T14:51:18;24.87;;;10.27;;
12814;SDS011;6472;52.328;13.070;2023-01-24T14:53:50;22.77;;;9.57;;
12814;SDS011;6472;52.328;13.070;2023-01-24T14:56:20;27.73;;;10.80;;
12814;SDS011;6472;52.328;13.070;2023-01-24T14:58:48;32.50;;;11.70;;
12814;SDS011;6472;52.328;13.070;2023-01-24T15:01:22;32.30;;;12.70;;
12814;SDS011;6472;52.328;13.070;2023-01-24T15:03:53;34.33;;;10.83;;
12814;SDS011;6472;52.328;13.070;2023-01-24T15:06:23;32.70;;;13.07;;
12814;SDS011;6472;52.328;13.070;2023-01-24T15:08:53;34.10;;;10.60;;
12814;SDS011;6472;52.328;13.070;2023-01-24T15:11:25;26.30;;;9.97;;
12814;SDS011;6472;52.328;13.070;2023-01-24T15:13:59;27.80;;;11.93;;
12814;SDS011;6472;52.328;13.070;2023-01-24T15:16:32;30.87;;;9.43;;
12814;SDS011;6472;52.328;13.070;2023-01-24T15:19:03;32.00;;;11.17;;
12814;SDS011;6472;52.328;13.070;2023-01-24T15:21:34;27.33;;;9.70;;
12814;SDS011;6472;52.328;13.070;2023-01-24T15:24:06;39.80;;;11.70;;
12814;SDS011;6472;52.328;13.070;2023-01-24T15:26:47;27.43;;;11.60;;
12814;SDS011;6472;52.328;13.070;2023-01-24T15:29:37;40.57;;;11.90;;
12814;SDS011;6472;52.328;13.070;2023-01-24T15:38:11;37.60;;;12.40;;
12814;SDS011;6472;52.328;13.070;2023-01-24T15:40:53;27.43;;;9.93;;